createdAt,value
2018-09-10T00:01:33.191Z,19.04
2018-09-10T00:04:02.077Z,19.05
2018-09-10T00:06:30.923Z,19.02
2018-09-10T00:08:59.771Z,19.02
2018-09-10T00:11:28.612Z,19.01
2018-09-10T00:13:57.463Z,18.92
2018-09-10T00:16:26.272Z,18.94
2018-09-10T00:18:55.163Z,18.91
2018-09-10T00:21:24.033Z,18.89
2018-09-10T00:23:52.862Z,18.88
2018-09-10T00:26:21.725Z,18.86
2018-09-10T00:28:50.582Z,19.15
2018-09-10T00:31:19.434Z,18.90
2018-09-10T00:33:48.304Z,18.86
2018-09-10T00:36:17.182Z,18.82
2018-09-10T00:38:46.029Z,18.82
2018-09-10T00:41:14.874Z,18.72
2018-09-10T00:43:43.745Z,18.74
2018-09-10T00:46:12.643Z,18.72
2018-09-10T00:48:41.511Z,18.66
2018-09-10T00:51:10.403Z,18.98
2018-09-10T00:53:39.244Z,18.71
2018-09-10T00:56:08.126Z,18.70
2018-09-10T00:58:36.990Z,18.65
2018-09-10T01:01:05.843Z,18.65
2018-09-10T01:03:34.670Z,18.67
2018-09-10T01:06:03.542Z,18.66
2018-09-10T01:08:32.366Z,18.62
2018-09-10T01:11:01.191Z,18.59
2018-09-10T01:13:30.139Z,18.57
2018-09-10T01:15:58.925Z,18.54
2018-09-10T01:18:27.804Z,18.54
2018-09-10T01:20:56.691Z,18.48
2018-09-10T01:23:25.553Z,18.39
2018-09-10T01:25:54.426Z,18.26
2018-09-10T01:28:23.292Z,18.28
2018-09-10T01:30:52.149Z,18.29
2018-09-10T01:33:38.571Z,18.30
2018-09-10T01:36:07.428Z,18.27
2018-09-10T01:38:36.263Z,18.27
2018-09-10T01:41:05.151Z,18.24
2018-09-10T01:43:34.011Z,18.24
2018-09-10T01:46:03.085Z,18.22
2018-09-10T01:48:31.916Z,18.25
2018-09-10T01:51:00.790Z,18.25
2018-09-10T01:53:29.626Z,18.25
2018-09-10T01:55:58.604Z,18.23
2018-09-10T01:58:27.479Z,18.23
2018-09-10T02:00:56.381Z,18.21
2018-09-10T02:03:25.234Z,18.21
2018-09-10T02:05:54.066Z,18.17
2018-09-10T02:08:22.948Z,18.18
2018-09-10T02:10:51.790Z,18.18
2018-09-10T02:13:20.671Z,18.54
2018-09-10T02:15:49.506Z,18.30
2018-09-10T02:18:18.974Z,18.29
2018-09-10T02:20:47.787Z,18.23
2018-09-10T02:23:16.857Z,18.22
2018-09-10T02:25:45.715Z,18.24
2018-09-10T02:28:14.575Z,18.20
2018-09-10T02:30:43.439Z,18.20
2018-09-10T02:33:12.301Z,18.19
2018-09-10T02:35:41.173Z,18.17
2018-09-10T02:38:10.039Z,18.18
2018-09-10T02:40:38.913Z,18.22
2018-09-10T02:43:07.778Z,18.21
2018-09-10T02:45:36.637Z,18.23
2018-09-10T02:48:05.514Z,18.22
2018-09-10T02:50:34.371Z,18.25
2018-09-10T02:53:03.252Z,18.23
2018-09-10T02:55:32.131Z,18.20
2018-09-10T02:58:01.008Z,18.17
2018-09-10T03:00:29.867Z,18.10
2018-09-10T03:02:58.733Z,18.14
2018-09-10T03:05:27.593Z,18.10
2018-09-10T03:07:56.453Z,18.11
2018-09-10T03:10:25.306Z,18.07
2018-09-10T03:12:54.988Z,18.03
2018-09-10T03:15:23.863Z,18.07
2018-09-10T03:17:53.114Z,18.10
2018-09-10T03:20:22.271Z,18.12
2018-09-10T03:22:51.129Z,18.16
2018-09-10T03:25:19.978Z,18.17
2018-09-10T03:27:48.793Z,18.14
2018-09-10T03:30:17.690Z,18.13
2018-09-10T03:32:46.566Z,18.16
2018-09-10T03:35:15.428Z,18.17
2018-09-10T03:37:44.254Z,18.14
2018-09-10T03:40:13.135Z,18.14
2018-09-10T03:42:42.011Z,18.49
2018-09-10T03:45:10.855Z,18.63
2018-09-10T03:47:39.719Z,18.32
2018-09-10T03:50:08.594Z,18.24
2018-09-10T03:52:37.459Z,18.23
2018-09-10T03:55:06.302Z,18.56
2018-09-10T03:57:35.186Z,18.30
2018-09-10T04:00:04.154Z,18.27
2018-09-10T04:02:33.033Z,18.27
2018-09-10T04:05:01.867Z,18.19
2018-09-10T04:07:30.737Z,18.19
2018-09-10T04:09:59.571Z,18.09
2018-09-10T04:12:28.425Z,18.12
2018-09-10T04:14:57.288Z,18.07
2018-09-10T04:17:26.149Z,18.10
2018-09-10T04:20:08.020Z,18.09
2018-09-10T04:22:37.166Z,18.08
2018-09-10T04:25:06.325Z,18.06
2018-09-10T04:27:35.861Z,18.02
2018-09-10T04:30:13.438Z,18.03
2018-09-10T04:32:42.310Z,18.04
2018-09-10T04:35:11.955Z,18.04
2018-09-10T04:37:41.236Z,18.37
2018-09-10T04:40:10.122Z,18.15
2018-09-10T04:42:38.989Z,18.10
2018-09-10T04:45:07.936Z,18.08
2018-09-10T04:47:36.781Z,18.07
2018-09-10T04:50:06.024Z,18.05
2018-09-10T04:52:34.887Z,18.05
2018-09-10T04:55:03.839Z,18.04
2018-09-10T04:57:32.733Z,18.01
2018-09-10T05:00:01.633Z,18.02
2018-09-10T05:02:30.502Z,18.00
2018-09-10T05:04:59.406Z,17.98
2018-09-10T05:07:28.295Z,17.97
2018-09-10T05:09:57.308Z,17.97
2018-09-10T05:12:26.047Z,17.95
2018-09-10T05:14:54.909Z,17.94
2018-09-10T05:17:23.760Z,17.92
2018-09-10T05:19:52.660Z,17.90
2018-09-10T05:22:21.506Z,17.86
2018-09-10T05:24:50.428Z,17.89
2018-09-10T05:27:19.330Z,17.91
2018-09-10T05:29:48.218Z,18.24
2018-09-10T05:32:17.108Z,18.01
2018-09-10T05:34:46.007Z,17.98
2018-09-10T05:37:14.934Z,17.95
2018-09-10T05:39:43.784Z,17.96
2018-09-10T05:42:12.673Z,17.96
2018-09-10T05:44:41.547Z,17.99
2018-09-10T05:47:10.502Z,18.04
2018-09-10T05:49:39.383Z,18.08
2018-09-10T05:52:08.225Z,18.11
2018-09-10T05:54:37.108Z,18.01
2018-09-10T05:57:06.001Z,17.99
2018-09-10T05:59:34.869Z,17.98
2018-09-10T06:02:03.708Z,18.03
2018-09-10T06:04:32.584Z,18.01
2018-09-10T06:07:01.462Z,18.07
2018-09-10T06:09:30.377Z,18.07
2018-09-10T06:11:59.255Z,18.10
2018-09-10T06:14:28.141Z,18.21
2018-09-10T06:16:57.020Z,18.19
2018-09-10T06:19:25.931Z,18.23
2018-09-10T06:21:54.800Z,18.19
2018-09-10T06:24:23.709Z,18.26
2018-09-10T06:26:52.576Z,18.40
2018-09-10T06:29:21.474Z,18.36
2018-09-10T06:31:50.314Z,18.40
2018-09-10T06:34:19.291Z,18.42
2018-09-10T06:36:48.072Z,18.46
2018-09-10T06:39:16.927Z,18.47
2018-09-10T06:41:45.901Z,18.53
2018-09-10T06:44:14.770Z,18.87
2018-09-10T06:46:43.628Z,18.58
2018-09-10T06:49:12.523Z,18.71
2018-09-10T06:51:41.362Z,18.72
2018-09-10T06:54:10.591Z,18.83
2018-09-10T06:56:39.432Z,18.82
2018-09-10T06:59:08.410Z,18.88
2018-09-10T07:01:37.284Z,18.90
2018-09-10T07:04:06.201Z,18.94
2018-09-10T07:06:35.134Z,19.08
2018-09-10T07:09:05.576Z,19.23
2018-09-10T07:11:34.429Z,19.34
2018-09-10T07:14:03.318Z,19.47
2018-09-10T07:16:32.137Z,19.67
2018-09-10T07:19:01.063Z,19.80
2018-09-10T07:21:31.083Z,20.06
2018-09-10T07:23:59.955Z,19.88
2018-09-10T07:26:28.825Z,19.79
2018-09-10T07:28:57.655Z,19.69
2018-09-10T07:31:26.542Z,19.71
2018-09-10T07:33:55.404Z,19.79
2018-09-10T07:36:24.271Z,20.00
2018-09-10T07:38:53.123Z,20.15
2018-09-10T07:41:21.979Z,20.23
2018-09-10T07:43:51.431Z,20.22
2018-09-10T07:46:20.527Z,20.21
2018-09-10T07:48:49.397Z,20.20
2018-09-10T07:51:18.237Z,20.27
2018-09-10T07:53:47.143Z,20.35
2018-09-10T07:56:15.989Z,20.38
2018-09-10T07:58:44.852Z,20.77
2018-09-10T08:01:13.743Z,20.47
2018-09-10T08:03:42.615Z,20.58
2018-09-10T08:06:11.478Z,20.79
2018-09-10T08:08:40.333Z,20.95
2018-09-10T08:11:09.197Z,21.23
2018-09-10T08:13:38.054Z,21.45
2018-09-10T08:16:06.900Z,21.75
2018-09-10T08:18:35.752Z,22.06
2018-09-10T08:21:04.579Z,22.13
2018-09-10T08:23:33.426Z,22.15
2018-09-10T08:26:02.330Z,21.85
2018-09-10T08:28:31.219Z,22.29
2018-09-10T08:31:00.100Z,22.30
2018-09-10T08:33:28.951Z,22.14
2018-09-10T08:35:57.864Z,22.34
2018-09-10T08:38:26.713Z,22.51
2018-09-10T08:40:55.550Z,22.73
2018-09-10T08:43:24.444Z,22.71
2018-09-10T08:45:53.374Z,22.95
2018-09-10T08:48:22.373Z,23.03
2018-09-10T08:50:51.058Z,22.74
2018-09-10T08:53:20.101Z,23.12
2018-09-10T08:55:49.097Z,23.27
2018-09-10T08:58:17.848Z,23.03
2018-09-10T09:00:46.697Z,23.13
2018-09-10T09:03:15.538Z,22.81
2018-09-10T09:05:44.377Z,22.49
2018-09-10T09:08:13.211Z,22.33
2018-09-10T09:10:42.126Z,22.37
2018-09-10T09:13:10.989Z,22.22
2018-09-10T09:15:39.828Z,22.27
2018-09-10T09:18:08.662Z,22.12
2018-09-10T09:20:37.540Z,22.46
2018-09-10T09:23:06.413Z,22.15
2018-09-10T09:25:35.216Z,22.07
2018-09-10T09:28:04.082Z,21.99
2018-09-10T09:30:32.961Z,21.93
2018-09-10T09:33:01.792Z,21.65
2018-09-10T09:35:48.079Z,21.68
2018-09-10T09:38:35.009Z,21.85
2018-09-10T09:41:21.902Z,23.03
2018-09-10T09:44:08.727Z,24.20
2018-09-10T09:46:37.665Z,24.61
2018-09-10T09:49:06.528Z,24.39
2018-09-10T09:51:35.417Z,24.17
2018-09-10T09:54:04.289Z,24.34
2018-09-10T09:56:33.172Z,23.74
2018-09-10T09:59:02.030Z,23.84
2018-09-10T10:01:48.846Z,23.29
2018-09-10T10:04:17.783Z,23.73
2018-09-10T10:06:46.626Z,23.49
2018-09-10T10:09:15.535Z,23.75
2018-09-10T10:11:44.452Z,23.77
2018-09-10T10:14:13.241Z,23.71
2018-09-10T10:16:42.122Z,24.08
2018-09-10T10:19:11.008Z,24.25
2018-09-10T10:21:39.961Z,24.02
2018-09-10T10:24:08.787Z,24.02
2018-09-10T10:26:37.687Z,23.99
2018-09-10T10:29:06.586Z,23.60
2018-09-10T10:31:35.464Z,23.51
2018-09-10T10:34:04.354Z,23.51
2018-09-10T10:36:33.240Z,23.41
2018-09-10T10:39:02.384Z,23.34
2018-09-10T10:41:31.225Z,23.03
2018-09-10T10:44:00.120Z,22.80
2018-09-10T10:46:29.174Z,22.93
2018-09-10T10:48:58.015Z,23.23
2018-09-10T10:51:26.875Z,23.34
2018-09-10T10:53:55.714Z,23.42
2018-09-10T10:56:24.551Z,23.43
2018-09-10T10:58:53.383Z,23.29
2018-09-10T11:01:22.258Z,23.28
2018-09-10T11:03:51.123Z,23.43
2018-09-10T11:06:19.954Z,23.62
2018-09-10T11:08:49.530Z,23.81
2018-09-10T11:11:18.521Z,23.84
2018-09-10T11:13:47.355Z,24.22
2018-09-10T11:16:16.189Z,23.84
2018-09-10T11:18:45.047Z,23.44
2018-09-10T11:21:13.914Z,23.62
2018-09-10T11:23:42.744Z,22.91
2018-09-10T11:26:11.590Z,23.02
2018-09-10T11:28:40.448Z,22.81
2018-09-10T11:31:09.348Z,22.71
2018-09-10T11:33:38.114Z,22.74
2018-09-10T11:36:07.000Z,22.55
2018-09-10T11:38:35.824Z,22.43
2018-09-10T11:41:04.673Z,22.37
2018-09-10T11:43:33.482Z,22.30
2018-09-10T11:46:02.328Z,22.37
2018-09-10T11:48:31.169Z,22.33
2018-09-10T11:51:00.048Z,22.07
2018-09-10T11:53:28.944Z,22.46
2018-09-10T11:55:57.811Z,22.44
2018-09-10T11:58:26.766Z,22.79
2018-09-10T12:00:55.681Z,22.71
2018-09-10T12:03:24.531Z,22.95
2018-09-10T12:05:53.399Z,22.99
2018-09-10T12:08:22.312Z,22.93
2018-09-10T12:10:51.097Z,22.86
2018-09-10T12:13:19.936Z,22.93
2018-09-10T12:15:48.815Z,22.64
2018-09-10T12:18:17.669Z,22.61
2018-09-10T12:20:46.561Z,22.59
2018-09-10T12:23:15.416Z,22.32
2018-09-10T12:25:44.260Z,22.37
2018-09-10T12:28:13.109Z,22.22
2018-09-10T12:30:42.005Z,22.42
2018-09-10T12:33:10.828Z,22.63
2018-09-10T12:35:39.665Z,23.11
2018-09-10T12:38:08.609Z,23.08
2018-09-10T12:40:37.458Z,23.04
2018-09-10T12:43:06.294Z,23.15
2018-09-10T12:45:35.907Z,23.31
2018-09-10T12:48:04.839Z,23.10
2018-09-10T12:50:33.895Z,23.05
2018-09-10T12:53:02.751Z,23.20
2018-09-10T12:55:31.574Z,22.96
2018-09-10T12:58:00.407Z,22.85
2018-09-10T13:00:29.264Z,22.90
2018-09-10T13:02:58.094Z,23.11
2018-09-10T13:05:26.944Z,22.98
2018-09-10T13:07:55.782Z,22.93
2018-09-10T13:10:24.617Z,22.91
2018-09-10T13:12:53.505Z,22.72
2018-09-10T13:15:22.377Z,22.59
2018-09-10T13:17:51.215Z,22.50
2018-09-10T13:20:20.046Z,22.44
2018-09-10T13:22:48.866Z,22.40
2018-09-10T13:25:17.705Z,22.43
2018-09-10T13:27:46.582Z,22.52
2018-09-10T13:30:15.419Z,22.54
2018-09-10T13:32:44.261Z,22.55
2018-09-10T13:35:13.137Z,22.63
2018-09-10T13:37:42.008Z,22.74
2018-09-10T13:40:10.841Z,22.75
2018-09-10T13:42:39.679Z,22.76
2018-09-10T13:45:08.524Z,22.79
2018-09-10T13:47:37.356Z,22.81
2018-09-10T13:50:06.218Z,22.83
2018-09-10T13:52:35.080Z,22.80
2018-09-10T13:55:03.958Z,22.60
2018-09-10T13:57:32.821Z,22.59
2018-09-10T14:00:01.660Z,22.48
2018-09-10T14:02:30.503Z,22.49
2018-09-10T14:04:59.364Z,22.69
2018-09-10T14:07:28.220Z,22.59
2018-09-10T14:09:57.093Z,22.57
2018-09-10T14:12:25.982Z,22.57
2018-09-10T14:14:54.821Z,22.36
2018-09-10T14:17:23.649Z,22.38
2018-09-10T14:19:52.505Z,22.36
2018-09-10T14:22:21.346Z,22.38
2018-09-10T14:24:50.201Z,22.26
2018-09-10T14:27:19.083Z,22.31
2018-09-10T14:29:47.895Z,22.22
2018-09-10T14:32:16.755Z,22.15
2018-09-10T14:34:45.633Z,22.11
2018-09-10T14:37:14.440Z,22.00
2018-09-10T14:39:43.278Z,21.99
2018-09-10T14:42:13.547Z,22.02
2018-09-10T14:44:42.891Z,22.06
2018-09-10T14:47:12.199Z,22.05
2018-09-10T14:49:41.388Z,22.08
2018-09-10T14:52:10.789Z,22.15
2018-09-10T14:54:39.939Z,22.09
2018-09-10T14:57:09.184Z,22.00
2018-09-10T14:59:38.407Z,21.95
2018-09-10T15:02:07.660Z,21.88
2018-09-10T15:04:36.950Z,21.91
2018-09-10T15:07:06.147Z,21.90
2018-09-10T15:09:35.374Z,21.90
2018-09-10T15:12:04.694Z,21.87
2018-09-10T15:14:33.634Z,21.86
2018-09-10T15:17:02.420Z,21.77
2018-09-10T15:19:31.270Z,21.78
2018-09-10T15:22:00.216Z,21.86
2018-09-10T15:24:29.114Z,21.84
2018-09-10T15:26:58.109Z,21.93
2018-09-10T15:29:26.948Z,21.99
2018-09-10T15:31:55.809Z,21.99
2018-09-10T15:34:24.703Z,21.95
2018-09-10T15:36:53.496Z,21.96
2018-09-10T15:39:22.330Z,21.98
2018-09-10T15:41:51.175Z,22.05
2018-09-10T15:44:20.081Z,22.09
2018-09-10T15:46:48.896Z,22.13
2018-09-10T15:49:17.759Z,22.20
2018-09-10T15:51:46.582Z,22.19
2018-09-10T15:54:15.446Z,22.16
2018-09-10T15:56:44.286Z,22.12
2018-09-10T15:59:13.141Z,22.18
2018-09-10T16:01:41.984Z,22.07
2018-09-10T16:04:10.838Z,22.00
2018-09-10T16:06:39.709Z,22.00
2018-09-10T16:09:09.098Z,22.02
2018-09-10T16:11:38.002Z,22.30
2018-09-10T16:14:06.817Z,22.05
2018-09-10T16:16:35.683Z,21.97
2018-09-10T16:19:04.550Z,21.86
2018-09-10T16:21:33.435Z,22.01
2018-09-10T16:24:02.264Z,21.82
2018-09-10T16:26:31.124Z,21.78
2018-09-10T16:28:59.971Z,21.49
2018-09-10T16:31:28.816Z,21.55
2018-09-10T16:33:57.664Z,21.62
2018-09-10T16:36:26.483Z,21.61
2018-09-10T16:38:55.317Z,21.52
2018-09-10T16:41:24.164Z,21.50
2018-09-10T16:43:53.048Z,21.50
2018-09-10T16:46:21.877Z,21.46
2018-09-10T16:48:50.713Z,21.47
2018-09-10T16:51:19.628Z,21.46
2018-09-10T16:53:48.409Z,21.48
2018-09-10T16:56:17.219Z,21.45
2018-09-10T16:58:46.045Z,21.43
2018-09-10T17:01:14.883Z,21.41
2018-09-10T17:03:43.724Z,21.42
2018-09-10T17:06:12.652Z,21.36
2018-09-10T17:08:41.756Z,21.30
2018-09-10T17:11:10.576Z,21.24
2018-09-10T17:13:39.457Z,21.24
2018-09-10T17:16:08.283Z,21.23
2018-09-10T17:18:37.117Z,21.20
2018-09-10T17:21:06.150Z,21.13
2018-09-10T17:23:34.978Z,21.07
2018-09-10T17:26:03.806Z,21.06
2018-09-10T17:28:32.680Z,21.02
2018-09-10T17:31:01.540Z,20.98
2018-09-10T17:33:30.384Z,20.92
2018-09-10T17:35:59.216Z,20.90
2018-09-10T17:38:28.065Z,20.90
2018-09-10T17:40:56.909Z,20.87
2018-09-10T17:43:25.758Z,20.83
2018-09-10T17:45:54.650Z,20.77
2018-09-10T17:48:23.520Z,20.75
2018-09-10T17:50:52.384Z,20.77
2018-09-10T17:53:21.224Z,20.68
2018-09-10T17:55:50.066Z,20.53
2018-09-10T17:58:19.136Z,20.80
2018-09-10T18:00:48.398Z,20.54
2018-09-10T18:03:17.165Z,20.46
2018-09-10T18:05:46.004Z,20.36
2018-09-10T18:08:15.006Z,20.27
2018-09-10T18:10:43.881Z,20.54
2018-09-10T18:13:12.742Z,20.28
2018-09-10T18:15:41.532Z,20.18
2018-09-10T18:18:10.402Z,20.06
2018-09-10T18:20:39.227Z,19.99
2018-09-10T18:23:08.092Z,19.98
2018-09-10T18:25:36.962Z,19.93
2018-09-10T18:28:05.853Z,19.94
2018-09-10T18:30:34.725Z,19.92
2018-09-10T18:33:03.565Z,19.88
2018-09-10T18:35:32.455Z,19.85
2018-09-10T18:38:01.254Z,19.83
2018-09-10T18:40:30.117Z,19.84
2018-09-10T18:42:58.933Z,19.82
2018-09-10T18:45:27.793Z,19.82
2018-09-10T18:47:56.599Z,19.75
2018-09-10T18:50:25.473Z,19.72
2018-09-10T18:52:54.303Z,19.67
2018-09-10T18:55:23.167Z,19.69
2018-09-10T18:57:52.439Z,19.69
2018-09-10T19:00:21.282Z,19.61
2018-09-10T19:02:50.121Z,19.96
2018-09-10T19:05:19.025Z,19.80
2018-09-10T19:07:47.876Z,19.70
2018-09-10T19:10:16.719Z,19.65
2018-09-10T19:12:45.550Z,19.53
2018-09-10T19:15:14.399Z,19.57
2018-09-10T19:17:43.264Z,19.59
2018-09-10T19:20:12.102Z,19.84
2018-09-10T19:22:40.937Z,19.57
2018-09-10T19:25:09.796Z,19.51
2018-09-10T19:27:38.686Z,19.46
2018-09-10T19:30:07.528Z,19.44
2018-09-10T19:32:36.384Z,19.38
2018-09-10T19:35:05.237Z,19.67
2018-09-10T19:37:34.133Z,19.40
2018-09-10T19:40:02.916Z,19.29
2018-09-10T19:42:31.824Z,19.25
2018-09-10T19:45:00.662Z,19.20
2018-09-10T19:47:29.489Z,19.12
2018-09-10T19:49:58.351Z,19.14
2018-09-10T19:52:27.264Z,19.15
2018-09-10T19:54:56.174Z,19.43
2018-09-10T19:57:25.003Z,19.16
2018-09-10T19:59:53.877Z,19.44
2018-09-10T20:02:22.698Z,19.15
2018-09-10T20:04:51.546Z,19.03
2018-09-10T20:07:20.400Z,18.95
2018-09-10T20:09:49.380Z,18.92
2018-09-10T20:12:18.141Z,18.84
2018-09-10T20:14:47.062Z,18.77
2018-09-10T20:17:15.903Z,18.68
2018-09-10T20:19:44.740Z,18.64
2018-09-10T20:22:15.340Z,18.59
2018-09-10T20:24:44.185Z,18.50
2018-09-10T20:27:13.091Z,18.46
2018-09-10T20:29:41.939Z,18.40
2018-09-10T20:32:10.777Z,18.29
2018-09-10T20:34:39.627Z,18.23
2018-09-10T20:37:08.493Z,18.20
2018-09-10T20:39:37.340Z,18.18
2018-09-10T20:42:06.190Z,18.16
2018-09-10T20:44:35.053Z,18.05
2018-09-10T20:47:03.909Z,18.37
2018-09-10T20:49:32.761Z,18.10
2018-09-10T20:52:01.732Z,18.04
2018-09-10T20:54:30.576Z,18.35
2018-09-10T20:56:59.447Z,18.14
2018-09-10T20:59:28.341Z,18.02
2018-09-10T21:01:57.156Z,17.98
2018-09-10T21:04:26.041Z,17.92
2018-09-10T21:06:54.877Z,17.83
2018-09-10T21:09:23.770Z,17.73
2018-09-10T21:11:52.601Z,17.64
2018-09-10T21:14:21.481Z,17.58
2018-09-10T21:16:50.365Z,17.61
2018-09-10T21:19:19.807Z,17.51
2018-09-10T21:21:48.676Z,17.48
2018-09-10T21:24:17.523Z,17.50
2018-09-10T21:26:46.387Z,17.51
2018-09-10T21:29:15.242Z,17.43
2018-09-10T21:31:44.136Z,17.36
2018-09-10T21:34:13.007Z,17.43
2018-09-10T21:36:41.895Z,17.39
2018-09-10T21:39:11.223Z,17.39
2018-09-10T21:41:40.137Z,17.41
2018-09-10T21:44:09.716Z,17.34
2018-09-10T21:46:38.604Z,17.36
2018-09-10T21:49:07.478Z,17.38
2018-09-10T21:51:36.349Z,17.30
2018-09-10T21:54:05.252Z,17.27
2018-09-10T21:56:34.077Z,17.31
2018-09-10T21:59:02.938Z,17.30
2018-09-10T22:01:31.752Z,17.26
2018-09-10T22:04:00.625Z,17.62
2018-09-10T22:06:29.503Z,17.36
2018-09-10T22:08:58.362Z,17.28
2018-09-10T22:11:27.216Z,17.33
2018-09-10T22:13:56.071Z,17.27
2018-09-10T22:16:24.917Z,17.61
2018-09-10T22:18:53.795Z,17.73
2018-09-10T22:21:22.650Z,17.47
2018-09-10T22:23:51.526Z,17.40
2018-09-10T22:26:20.389Z,17.30
2018-09-10T22:28:49.349Z,17.66
2018-09-10T22:31:18.124Z,17.35
2018-09-10T22:33:47.017Z,17.32
2018-09-10T22:36:15.880Z,17.25
2018-09-10T22:38:44.785Z,17.22
2018-09-10T22:41:13.658Z,17.11
2018-09-10T22:43:42.565Z,17.15
2018-09-10T22:46:11.442Z,17.08
2018-09-10T22:48:40.350Z,17.46
2018-09-10T22:51:09.237Z,17.58
2018-09-10T22:53:38.127Z,17.22
2018-09-10T22:56:07.023Z,17.02
2018-09-10T22:58:35.987Z,17.08
2018-09-10T23:01:04.852Z,17.06
2018-09-10T23:03:33.689Z,17.00
2018-09-10T23:06:02.582Z,16.92
2018-09-10T23:08:31.528Z,16.86
2018-09-10T23:11:00.340Z,17.21
2018-09-10T23:13:29.171Z,16.89
2018-09-10T23:15:58.077Z,16.85
2018-09-10T23:18:27.044Z,16.83
2018-09-10T23:20:55.923Z,16.91
2018-09-10T23:23:24.817Z,16.91
2018-09-10T23:25:53.685Z,16.88
2018-09-10T23:28:22.593Z,16.90
2018-09-10T23:30:51.428Z,16.91
2018-09-10T23:33:20.373Z,16.92
2018-09-10T23:35:49.271Z,16.90
2018-09-10T23:38:18.145Z,16.78
2018-09-10T23:40:47.059Z,17.18
2018-09-10T23:43:15.927Z,17.30
2018-09-10T23:45:44.820Z,17.41
2018-09-10T23:48:13.676Z,17.15
2018-09-10T23:50:42.551Z,16.99
2018-09-10T23:53:11.427Z,17.03
2018-09-10T23:55:40.282Z,17.05
2018-09-10T23:58:09.100Z,17.04
